createdAt,value
2023-05-25T00:01:00.483Z,8.07
2023-05-25T00:03:49.547Z,13.38
2023-05-25T00:06:41.124Z,6.72
2023-05-25T00:09:28.636Z,4.95
2023-05-25T00:12:16.699Z,8.50
2023-05-25T00:15:07.497Z,5.90
2023-05-25T00:17:56.059Z,7.40
2023-05-25T00:20:47.452Z,6.47
2023-05-25T00:23:35.202Z,7.75
2023-05-25T00:26:22.974Z,8.15
2023-05-25T00:29:11.289Z,5.50
2023-05-25T00:32:00.780Z,8.63
2023-05-25T00:34:48.309Z,8.52
2023-05-25T00:37:35.796Z,6.85
2023-05-25T00:40:23.837Z,5.35
2023-05-25T00:43:12.433Z,6.22
2023-05-25T00:46:00.278Z,7.32
2023-05-25T00:48:49.320Z,8.00
2023-05-25T00:51:37.838Z,5.47
2023-05-25T00:54:25.784Z,7.63
2023-05-25T00:57:17.810Z,5.93
2023-05-25T01:00:11.496Z,10.02
2023-05-25T01:03:02.075Z,6.95
2023-05-25T01:05:56.174Z,7.60
2023-05-25T01:08:52.730Z,8.05
2023-05-25T01:11:45.353Z,7.63
2023-05-25T01:14:36.274Z,8.50
2023-05-25T01:17:24.197Z,8.82
2023-05-25T01:20:13.056Z,6.20
2023-05-25T01:23:11.878Z,6.32
2023-05-25T01:26:04.133Z,10.88
2023-05-25T01:28:55.868Z,8.98
2023-05-25T01:31:44.468Z,8.10
2023-05-25T01:34:34.183Z,10.68
2023-05-25T01:37:32.097Z,6.07
2023-05-25T01:40:21.347Z,7.28
2023-05-25T01:43:09.212Z,6.30
2023-05-25T01:46:10.850Z,6.78
2023-05-25T01:49:13.518Z,5.30
2023-05-25T01:52:13.691Z,4.45
2023-05-25T01:55:08.345Z,6.65
2023-05-25T01:58:06.467Z,9.32
2023-05-25T02:00:55.542Z,9.35
2023-05-25T02:03:44.771Z,7.00
2023-05-25T02:06:32.420Z,5.80
2023-05-25T02:09:19.887Z,6.20
2023-05-25T02:12:08.474Z,6.72
2023-05-25T02:14:58.244Z,7.50
2023-05-25T02:17:45.663Z,8.00
2023-05-25T02:20:33.727Z,6.78
2023-05-25T02:23:21.714Z,6.35
2023-05-25T02:26:09.497Z,6.18
2023-05-25T02:29:01.890Z,9.43
2023-05-25T02:31:51.344Z,9.23
2023-05-25T02:34:38.884Z,6.38
2023-05-25T02:37:26.502Z,9.05
2023-05-25T02:40:14.696Z,8.13
2023-05-25T02:43:02.741Z,5.85
2023-05-25T02:45:50.616Z,5.85
2023-05-25T02:48:39.897Z,6.00
2023-05-25T02:51:27.902Z,7.30
2023-05-25T02:54:17.141Z,5.70
2023-05-25T02:57:05.221Z,6.50
2023-05-25T02:59:52.806Z,6.00
2023-05-25T03:02:40.690Z,8.15
2023-05-25T03:05:30.091Z,5.07
2023-05-25T03:08:17.632Z,7.60
2023-05-25T03:11:05.071Z,6.60
2023-05-25T03:13:53.595Z,8.70
2023-05-25T03:16:41.177Z,6.90
2023-05-25T03:19:29.033Z,9.75
2023-05-25T03:22:17.929Z,8.63
2023-05-25T03:25:06.478Z,7.15
2023-05-25T03:27:54.237Z,6.70
2023-05-25T03:30:42.168Z,7.30
2023-05-25T03:33:29.841Z,12.43
2023-05-25T03:36:17.949Z,7.07
2023-05-25T03:39:07.398Z,10.27
2023-05-25T03:41:56.074Z,11.48
2023-05-25T03:44:43.857Z,6.28
2023-05-25T03:47:31.870Z,8.63
2023-05-25T03:50:19.404Z,8.57
2023-05-25T03:53:07.223Z,8.25
2023-05-25T03:55:56.649Z,8.18
2023-05-25T03:58:44.716Z,11.05
2023-05-25T04:01:32.052Z,5.97
2023-05-25T04:04:19.767Z,10.25
2023-05-25T04:07:07.291Z,8.32
2023-05-25T04:09:54.802Z,7.35
2023-05-25T04:12:44.095Z,8.82
2023-05-25T04:15:34.559Z,6.88
2023-05-25T04:18:22.532Z,6.07
2023-05-25T04:21:10.366Z,8.40
2023-05-25T04:23:57.736Z,8.63
2023-05-25T04:26:46.212Z,9.40
2023-05-25T04:29:35.483Z,5.65
2023-05-25T04:32:23.911Z,8.65
2023-05-25T04:35:11.636Z,8.85
2023-05-25T04:38:00.703Z,10.95
2023-05-25T04:40:48.620Z,8.50
2023-05-25T04:43:36.224Z,11.57
2023-05-25T04:46:25.622Z,6.45
2023-05-25T04:49:14.301Z,8.63
2023-05-25T04:52:01.847Z,8.85
2023-05-25T04:54:49.385Z,11.20
2023-05-25T04:57:37.066Z,9.20
2023-05-25T05:00:24.959Z,8.63
2023-05-25T05:03:14.540Z,10.05
2023-05-25T05:06:02.103Z,7.30
2023-05-25T05:08:49.821Z,9.40
2023-05-25T05:11:37.582Z,8.73
2023-05-25T05:14:25.164Z,9.90
2023-05-25T05:17:13.056Z,9.25
2023-05-25T05:20:02.062Z,10.18
2023-05-25T05:22:49.639Z,13.52
2023-05-25T05:25:38.089Z,8.68
2023-05-25T05:28:27.435Z,8.77
2023-05-25T05:31:17.352Z,6.63
2023-05-25T05:34:05.602Z,10.57
2023-05-25T05:36:58.486Z,16.17
2023-05-25T05:39:49.363Z,9.35
2023-05-25T05:42:36.793Z,7.45
2023-05-25T05:45:24.396Z,9.50
2023-05-25T05:48:12.040Z,14.48
2023-05-25T05:50:59.586Z,14.85
2023-05-25T05:53:48.383Z,11.88
2023-05-25T05:56:35.975Z,9.23
2023-05-25T05:59:24.168Z,13.50
2023-05-25T06:02:12.184Z,13.00
2023-05-25T06:05:01.281Z,11.57
2023-05-25T06:07:49.573Z,10.90
2023-05-25T06:10:38.953Z,12.60
2023-05-25T06:13:26.911Z,11.30
2023-05-25T06:16:14.457Z,16.90
2023-05-25T06:19:02.255Z,10.27
2023-05-25T06:21:49.989Z,11.25
2023-05-25T06:24:37.633Z,10.27
2023-05-25T06:27:26.651Z,9.93
2023-05-25T06:30:14.697Z,9.52
2023-05-25T06:33:02.221Z,10.00
2023-05-25T06:35:51.042Z,10.00
2023-05-25T06:38:38.715Z,12.65
2023-05-25T06:41:26.367Z,9.88
2023-05-25T06:44:15.453Z,12.20
2023-05-25T06:47:03.685Z,8.70
2023-05-25T06:49:51.610Z,11.63
2023-05-25T06:52:39.404Z,13.57
2023-05-25T06:55:27.028Z,7.53
2023-05-25T06:58:14.588Z,12.65
2023-05-25T07:01:04.497Z,8.73
2023-05-25T07:03:53.223Z,10.25
2023-05-25T07:06:40.902Z,10.13
2023-05-25T07:09:28.959Z,11.02
2023-05-25T07:12:16.744Z,12.25
2023-05-25T07:15:13.323Z,8.80
2023-05-25T07:18:02.368Z,10.82
2023-05-25T07:20:50.127Z,7.95
2023-05-25T07:23:37.703Z,10.73
2023-05-25T07:26:25.807Z,15.07
2023-05-25T07:29:13.749Z,13.23
2023-05-25T07:32:01.884Z,10.20
2023-05-25T07:34:50.638Z,15.90
2023-05-25T07:37:38.633Z,14.45
2023-05-25T07:40:26.208Z,11.00
2023-05-25T07:43:14.024Z,16.48
2023-05-25T07:46:02.472Z,12.77
2023-05-25T07:48:50.430Z,15.95
2023-05-25T07:51:39.496Z,12.57
2023-05-25T07:54:27.037Z,9.55
2023-05-25T07:57:14.646Z,15.95
2023-05-25T08:00:02.391Z,12.95
2023-05-25T08:02:50.769Z,15.50
2023-05-25T08:05:38.760Z,13.38
2023-05-25T08:08:53.283Z,12.77
2023-05-25T08:11:41.669Z,14.80
2023-05-25T08:14:29.586Z,11.60
2023-05-25T08:17:29.228Z,11.68
2023-05-25T08:20:16.972Z,12.43
2023-05-25T08:23:06.029Z,8.18
2023-05-25T08:25:54.893Z,12.43
2023-05-25T08:28:42.412Z,9.95
2023-05-25T08:31:30.065Z,7.55
2023-05-25T08:34:18.386Z,8.70
2023-05-25T08:37:06.188Z,8.80
2023-05-25T08:39:53.904Z,10.52
2023-05-25T08:42:44.536Z,7.15
2023-05-25T08:45:34.910Z,9.45
2023-05-25T08:48:40.147Z,10.10
2023-05-25T08:51:37.069Z,7.32
2023-05-25T08:54:31.282Z,12.27
2023-05-25T08:57:26.921Z,9.07
2023-05-25T09:00:20.136Z,10.35
2023-05-25T09:03:14.859Z,9.90
2023-05-25T09:06:03.117Z,11.88
2023-05-25T09:08:51.822Z,7.75
2023-05-25T09:11:42.275Z,8.35
2023-05-25T09:14:45.652Z,9.00
2023-05-25T09:17:37.377Z,10.65
2023-05-25T09:20:31.467Z,8.50
2023-05-25T09:23:20.146Z,6.22
2023-05-25T09:26:08.830Z,8.57
2023-05-25T09:28:57.076Z,11.02
2023-05-25T09:31:45.257Z,7.72
2023-05-25T09:34:34.897Z,12.63
2023-05-25T09:37:25.419Z,10.90
2023-05-25T09:40:15.392Z,11.80
2023-05-25T09:43:05.969Z,8.70
2023-05-25T09:45:55.800Z,10.15
2023-05-25T09:48:43.757Z,8.43
2023-05-25T09:51:33.675Z,14.55
2023-05-25T09:54:23.955Z,9.88
2023-05-25T09:57:15.427Z,10.90
2023-05-25T10:00:05.461Z,11.18
2023-05-25T10:02:54.532Z,9.40
2023-05-25T10:05:42.509Z,8.18
2023-05-25T10:08:32.165Z,10.25
2023-05-25T10:11:24.005Z,11.15
2023-05-25T10:14:16.312Z,8.23
2023-05-25T10:17:10.103Z,11.05
2023-05-25T10:20:01.743Z,9.45
2023-05-25T10:22:58.216Z,10.25
2023-05-25T10:26:15.181Z,7.75
2023-05-25T10:29:05.765Z,7.57
2023-05-25T10:31:55.329Z,7.57
2023-05-25T10:34:43.528Z,5.97
2023-05-25T10:37:34.649Z,10.07
2023-05-25T10:40:31.598Z,8.43
2023-05-25T10:43:22.232Z,8.70
2023-05-25T10:46:10.929Z,8.70
2023-05-25T10:49:02.409Z,9.07
2023-05-25T10:52:00.474Z,7.80
2023-05-25T10:54:49.193Z,8.77
2023-05-25T10:57:37.284Z,10.27
2023-05-25T11:00:32.896Z,8.73
2023-05-25T11:03:20.809Z,8.13
2023-05-25T11:06:10.436Z,9.85
2023-05-25T11:09:06.603Z,9.25
2023-05-25T11:12:05.214Z,12.98
2023-05-25T11:15:15.281Z,14.23
2023-05-25T11:18:04.766Z,12.85
2023-05-25T11:21:14.040Z,17.33
2023-05-25T11:24:06.867Z,69.75
2023-05-25T11:27:01.548Z,28.25
2023-05-25T11:29:52.374Z,37.45
2023-05-25T11:32:50.842Z,54.35
2023-05-25T11:35:40.168Z,61.05
2023-05-25T11:38:28.587Z,33.63
2023-05-25T11:41:20.000Z,31.95
2023-05-25T11:44:08.720Z,33.07
2023-05-25T11:46:58.102Z,21.45
2023-05-25T11:49:49.805Z,14.52
2023-05-25T11:52:38.656Z,18.90
2023-05-25T11:55:26.516Z,9.90
2023-05-25T11:58:14.017Z,8.07
2023-05-25T12:01:18.812Z,12.15
2023-05-25T12:04:11.488Z,8.60
2023-05-25T12:07:07.890Z,10.98
2023-05-25T12:10:08.931Z,8.75
2023-05-25T12:12:58.476Z,9.43
2023-05-25T12:15:47.281Z,8.32
2023-05-25T12:18:35.639Z,9.73
2023-05-25T12:21:24.550Z,9.55
2023-05-25T12:24:13.722Z,8.90
2023-05-25T12:27:06.637Z,7.75
2023-05-25T12:29:54.441Z,8.90
2023-05-25T12:33:04.080Z,9.40
2023-05-25T12:35:53.430Z,9.18
2023-05-25T12:38:40.963Z,7.45
2023-05-25T12:41:29.391Z,10.57
2023-05-25T12:44:25.425Z,12.45
2023-05-25T12:47:15.967Z,10.40
2023-05-25T12:50:14.776Z,11.27
2023-05-25T12:53:04.061Z,8.02
2023-05-25T12:56:01.252Z,6.00
2023-05-25T12:58:56.468Z,8.25
2023-05-25T13:01:45.745Z,10.90
2023-05-25T13:04:33.932Z,5.30
2023-05-25T13:07:22.699Z,12.15
2023-05-25T13:10:11.774Z,6.15
2023-05-25T13:12:59.769Z,9.63
2023-05-25T13:15:47.393Z,9.23
2023-05-25T13:18:36.638Z,5.82
2023-05-25T13:21:24.101Z,5.88
2023-05-25T13:24:11.764Z,7.40
2023-05-25T13:26:59.548Z,6.72
2023-05-25T13:29:47.441Z,6.95
2023-05-25T13:32:35.482Z,6.85
2023-05-25T13:35:37.588Z,6.68
2023-05-25T13:38:26.149Z,5.57
2023-05-25T13:41:13.660Z,7.15
2023-05-25T13:44:01.280Z,9.95
2023-05-25T13:46:48.951Z,18.75
2023-05-25T13:49:36.687Z,15.95
2023-05-25T13:52:26.844Z,8.82
2023-05-25T13:55:14.213Z,10.00
2023-05-25T13:58:01.830Z,9.55
2023-05-25T14:00:49.867Z,10.05
2023-05-25T14:03:38.531Z,6.97
2023-05-25T14:06:26.690Z,7.75
2023-05-25T14:09:16.328Z,9.02
2023-05-25T14:12:04.099Z,8.40
2023-05-25T14:14:51.768Z,7.30
2023-05-25T14:17:39.455Z,10.43
2023-05-25T14:20:27.600Z,6.07
2023-05-25T14:23:18.443Z,5.40
2023-05-25T14:26:07.938Z,6.27
2023-05-25T14:28:56.227Z,6.93
2023-05-25T14:31:43.690Z,10.05
2023-05-25T14:34:31.642Z,5.88
2023-05-25T14:37:19.234Z,8.32
2023-05-25T14:40:08.333Z,10.05
2023-05-25T14:42:56.990Z,6.63
2023-05-25T14:45:45.048Z,13.30
2023-05-25T14:48:33.140Z,9.20
2023-05-25T14:51:20.907Z,7.75
2023-05-25T14:54:08.726Z,9.73
2023-05-25T14:56:56.581Z,16.73
2023-05-25T14:59:48.278Z,14.50
2023-05-25T15:02:36.149Z,20.48
2023-05-25T15:05:25.993Z,10.48
2023-05-25T15:08:13.709Z,10.32
2023-05-25T15:11:01.091Z,9.77
2023-05-25T15:13:48.950Z,11.13
2023-05-25T15:16:38.033Z,8.32
2023-05-25T15:19:25.999Z,7.55
2023-05-25T15:22:15.680Z,7.38
2023-05-25T15:25:03.488Z,7.00
2023-05-25T15:27:51.349Z,5.43
2023-05-25T15:30:39.292Z,9.35
2023-05-25T15:33:40.070Z,5.45
2023-05-25T15:36:36.384Z,7.47
2023-05-25T15:39:23.968Z,6.07
2023-05-25T15:42:14.114Z,7.72
2023-05-25T15:45:02.896Z,6.80
2023-05-25T15:47:50.745Z,5.78
2023-05-25T15:50:40.225Z,5.93
2023-05-25T15:53:27.685Z,5.97
2023-05-25T15:56:15.328Z,5.93
2023-05-25T15:59:06.862Z,6.07
2023-05-25T16:04:42.344Z,4.22
2023-05-25T16:07:32.580Z,4.75
2023-05-25T16:10:20.293Z,5.05
2023-05-25T16:13:08.325Z,6.97
2023-05-25T16:15:55.827Z,6.85
2023-05-25T16:18:43.425Z,6.82
2023-05-25T16:21:31.131Z,5.60
2023-05-25T16:24:20.142Z,4.13
2023-05-25T16:27:08.206Z,6.90
2023-05-25T16:29:55.916Z,3.92
2023-05-25T16:32:43.609Z,4.55
2023-05-25T16:35:31.398Z,6.38
2023-05-25T16:38:19.140Z,5.30
2023-05-25T16:41:08.088Z,6.07
2023-05-25T16:43:55.730Z,7.10
2023-05-25T16:46:43.513Z,6.05
2023-05-25T16:49:31.329Z,8.82
2023-05-25T16:52:18.967Z,6.82
2023-05-25T16:55:08.271Z,8.10
2023-05-25T16:57:57.173Z,7.25
2023-05-25T17:00:45.252Z,8.57
2023-05-25T17:03:34.236Z,9.73
2023-05-25T17:06:22.183Z,9.70
2023-05-25T17:09:11.796Z,9.18
2023-05-25T17:12:01.173Z,7.82
2023-05-25T17:14:50.472Z,10.82
2023-05-25T17:17:38.123Z,8.68
2023-05-25T17:20:25.989Z,9.43
2023-05-25T17:23:13.549Z,6.78
2023-05-25T17:26:01.515Z,4.38
2023-05-25T17:28:48.988Z,5.35
2023-05-25T17:31:37.879Z,7.03
2023-05-25T17:34:28.794Z,5.80
2023-05-25T17:37:17.302Z,5.82
2023-05-25T17:40:06.567Z,6.32
2023-05-25T17:42:54.838Z,8.13
2023-05-25T17:45:42.619Z,12.13
2023-05-25T17:48:34.447Z,5.55
2023-05-25T17:51:22.564Z,6.50
2023-05-25T17:54:15.285Z,6.18
2023-05-25T17:57:03.590Z,5.78
2023-05-25T17:59:51.087Z,5.30
2023-05-25T18:02:38.973Z,7.10
2023-05-25T18:05:28.325Z,8.45
2023-05-25T18:08:16.081Z,6.43
2023-05-25T18:11:05.257Z,6.90
2023-05-25T18:13:52.847Z,8.05
2023-05-25T18:16:41.654Z,7.95
2023-05-25T18:19:29.679Z,7.60
2023-05-25T18:22:18.908Z,9.68
2023-05-25T18:25:07.899Z,8.85
2023-05-25T18:27:55.386Z,10.10
2023-05-25T18:30:43.422Z,11.40
2023-05-25T18:33:31.220Z,7.75
2023-05-25T18:36:18.897Z,9.95
2023-05-25T18:39:07.727Z,10.32
2023-05-25T18:41:55.474Z,9.27
2023-05-25T18:44:43.017Z,7.75
2023-05-25T18:47:33.534Z,10.50
2023-05-25T18:50:21.330Z,9.93
2023-05-25T18:56:13.426Z,10.07
2023-05-25T18:59:01.327Z,8.75
2023-05-25T19:01:49.227Z,7.63
2023-05-25T19:04:37.714Z,9.23
2023-05-25T19:07:25.619Z,8.15
2023-05-25T19:10:13.265Z,10.85
2023-05-25T19:13:02.069Z,6.93
2023-05-25T19:15:50.478Z,10.32
2023-05-25T19:18:38.297Z,9.65
2023-05-25T19:21:26.554Z,9.57
2023-05-25T19:24:14.427Z,10.07
2023-05-25T19:27:01.910Z,9.38
2023-05-25T19:29:50.774Z,9.43
2023-05-25T19:32:38.502Z,9.05
2023-05-25T19:35:26.129Z,7.13
2023-05-25T19:38:13.887Z,11.90
2023-05-25T19:41:01.741Z,9.32
2023-05-25T19:43:49.337Z,11.98
2023-05-25T19:46:39.772Z,11.88
2023-05-25T19:49:29.231Z,8.52
2023-05-25T19:52:18.440Z,7.88
2023-05-25T19:55:07.323Z,7.22
2023-05-25T19:57:55.325Z,9.20
2023-05-25T20:00:42.877Z,8.27
2023-05-25T20:03:31.965Z,10.93
2023-05-25T20:06:19.741Z,10.48
2023-05-25T20:09:07.226Z,11.07
2023-05-25T20:11:55.190Z,7.90
2023-05-25T20:14:42.566Z,11.60
2023-05-25T20:17:30.188Z,8.38
2023-05-25T20:20:19.180Z,8.25
2023-05-25T20:23:07.159Z,8.75
2023-05-25T20:25:54.690Z,8.88
2023-05-25T20:28:42.219Z,10.98
2023-05-25T20:31:29.804Z,8.13
2023-05-25T20:34:17.430Z,9.35
2023-05-25T20:37:06.580Z,11.60
2023-05-25T20:39:54.119Z,9.43
2023-05-25T20:42:41.747Z,9.00
2023-05-25T20:45:29.326Z,9.23
2023-05-25T20:48:17.222Z,10.60
2023-05-25T20:51:05.004Z,9.40
2023-05-25T20:53:53.992Z,9.35
2023-05-25T20:56:41.652Z,9.93
2023-05-25T20:59:31.373Z,10.65
2023-05-25T21:02:19.324Z,11.95
2023-05-25T21:05:07.408Z,12.48
2023-05-25T21:07:55.215Z,13.43
2023-05-25T21:10:44.087Z,12.23
2023-05-25T21:13:31.853Z,11.32
2023-05-25T21:16:19.489Z,9.40
2023-05-25T21:19:07.301Z,12.52
2023-05-25T21:21:54.802Z,12.05
2023-05-25T21:24:42.589Z,7.25
2023-05-25T21:27:31.737Z,10.90
2023-05-25T21:30:20.853Z,7.95
2023-05-25T21:33:08.550Z,10.20
2023-05-25T21:35:56.261Z,9.65
2023-05-25T21:38:44.083Z,10.20
2023-05-25T21:41:31.613Z,9.50
2023-05-25T21:44:20.621Z,10.80
2023-05-25T21:47:08.572Z,12.10
2023-05-25T21:49:57.200Z,12.90
2023-05-25T21:52:45.080Z,10.55
2023-05-25T21:55:32.698Z,10.27
2023-05-25T21:58:20.303Z,9.13
2023-05-25T22:01:09.661Z,8.23
2023-05-25T22:03:57.794Z,11.60
2023-05-25T22:06:45.422Z,8.75
2023-05-25T22:09:32.906Z,10.95
2023-05-25T22:12:21.535Z,10.73
2023-05-25T22:15:10.651Z,11.05
2023-05-25T22:18:00.282Z,9.02
2023-05-25T22:20:48.120Z,9.10
2023-05-25T22:23:36.004Z,11.80
2023-05-25T22:26:23.834Z,7.85
2023-05-25T22:29:12.112Z,10.27
2023-05-25T22:32:00.149Z,9.32
2023-05-25T22:34:49.402Z,8.20
2023-05-25T22:37:37.088Z,7.93
2023-05-25T22:40:24.706Z,9.50
2023-05-25T22:43:13.177Z,12.50
2023-05-25T22:46:00.755Z,9.43
2023-05-25T22:48:48.776Z,8.82
2023-05-25T22:51:38.030Z,9.02
2023-05-25T22:54:25.806Z,9.18
2023-05-25T22:57:13.256Z,8.80
2023-05-25T23:00:00.760Z,7.45
2023-05-25T23:02:48.285Z,6.45
2023-05-25T23:05:35.949Z,7.32
2023-05-25T23:08:25.200Z,8.60
2023-05-25T23:11:12.590Z,9.77
2023-05-25T23:14:00.719Z,6.22
2023-05-25T23:16:49.368Z,9.68
2023-05-25T23:19:38.695Z,7.28
2023-05-25T23:22:26.197Z,6.60
2023-05-25T23:25:15.329Z,7.18
2023-05-25T23:28:02.811Z,5.85
2023-05-25T23:30:50.736Z,9.52
2023-05-25T23:33:38.249Z,4.97
2023-05-25T23:36:28.150Z,6.93
2023-05-25T23:39:16.354Z,8.93
2023-05-25T23:42:05.606Z,6.70
2023-05-25T23:44:54.599Z,7.55
2023-05-25T23:47:42.549Z,7.72
2023-05-25T23:50:30.509Z,8.23
2023-05-25T23:53:18.251Z,9.68
2023-05-25T23:56:06.236Z,7.43
2023-05-25T23:58:56.889Z,9.48
